createdAt,value
2018-01-10T00:01:59.515Z,23.00
2018-01-10T00:04:26.249Z,22.93
2018-01-10T00:06:53.000Z,22.53
2018-01-10T00:09:19.732Z,22.50
2018-01-10T00:11:46.465Z,25.80
2018-01-10T00:14:13.192Z,22.97
2018-01-10T00:16:40.723Z,21.03
2018-01-10T00:19:07.442Z,22.43
2018-01-10T00:21:34.198Z,23.53
2018-01-10T00:24:00.933Z,24.87
2018-01-10T00:26:27.802Z,26.27
2018-01-10T00:28:55.324Z,22.57
2018-01-10T00:31:22.060Z,24.13
2018-01-10T00:33:48.804Z,28.90
2018-01-10T00:36:15.547Z,24.97
2018-01-10T00:38:42.284Z,26.53
2018-01-10T00:41:09.054Z,28.13
2018-01-10T00:43:35.809Z,23.17
2018-01-10T00:46:02.552Z,27.20
2018-01-10T00:48:29.322Z,24.30
2018-01-10T00:50:56.024Z,24.70
2018-01-10T00:53:22.766Z,24.43
2018-01-10T00:55:49.521Z,23.77
2018-01-10T00:58:16.307Z,25.07
2018-01-10T01:00:43.237Z,20.77
2018-01-10T01:03:10.002Z,23.37
2018-01-10T01:05:36.722Z,23.30
2018-01-10T01:08:03.449Z,21.63
2018-01-10T01:10:30.194Z,22.43
2018-01-10T01:12:56.929Z,24.00
2018-01-10T01:15:23.677Z,24.07
2018-01-10T01:17:51.909Z,22.33
2018-01-10T01:20:18.664Z,23.23
2018-01-10T01:22:45.406Z,24.17
2018-01-10T01:25:12.203Z,20.60
2018-01-10T01:27:39.765Z,24.20
2018-01-10T01:30:07.264Z,21.83
2018-01-10T01:32:33.994Z,24.40
2018-01-10T01:35:00.730Z,21.07
2018-01-10T01:37:27.467Z,23.37
2018-01-10T01:39:54.204Z,24.13
2018-01-10T01:42:20.955Z,23.10
2018-01-10T01:44:47.682Z,24.20
2018-01-10T01:47:14.423Z,24.60
2018-01-10T01:49:41.183Z,20.87
2018-01-10T01:52:08.081Z,20.03
2018-01-10T01:54:34.849Z,20.37
2018-01-10T01:57:01.585Z,23.43
2018-01-10T01:59:28.301Z,21.20
2018-01-10T02:01:55.038Z,20.70
2018-01-10T02:04:21.777Z,21.77
2018-01-10T02:06:48.716Z,19.13
2018-01-10T02:09:16.234Z,20.57
2018-01-10T02:11:42.981Z,20.83
2018-01-10T02:14:09.746Z,21.60
2018-01-10T02:16:37.240Z,22.60
2018-01-10T02:19:03.996Z,21.40
2018-01-10T02:21:30.737Z,21.87
2018-01-10T02:23:57.463Z,22.07
2018-01-10T02:26:24.432Z,24.00
2018-01-10T02:28:51.155Z,21.80
2018-01-10T02:31:17.939Z,24.10
2018-01-10T02:33:45.465Z,24.80
2018-01-10T02:36:12.196Z,20.40
2018-01-10T02:38:38.923Z,23.60
2018-01-10T02:41:05.683Z,22.00
2018-01-10T02:43:32.423Z,21.70
2018-01-10T02:45:59.183Z,20.30
2018-01-10T02:48:25.902Z,23.33
2018-01-10T02:50:53.554Z,21.30
2018-01-10T02:53:20.286Z,21.70
2018-01-10T02:55:47.039Z,22.83
2018-01-10T02:58:13.774Z,22.57
2018-01-10T03:00:40.508Z,21.87
2018-01-10T03:03:07.244Z,21.67
2018-01-10T03:05:33.976Z,20.00
2018-01-10T03:08:00.864Z,21.57
2018-01-10T03:10:28.390Z,20.40
2018-01-10T03:12:55.127Z,20.80
2018-01-10T03:15:21.856Z,19.27
2018-01-10T03:17:48.592Z,20.80
2018-01-10T03:20:15.322Z,20.73
2018-01-10T03:22:42.151Z,21.43
2018-01-10T03:25:09.630Z,22.53
2018-01-10T03:27:36.379Z,19.30
2018-01-10T03:30:03.120Z,21.03
2018-01-10T03:32:29.899Z,19.23
2018-01-10T03:34:57.411Z,20.47
2018-01-10T03:37:24.154Z,22.10
2018-01-10T03:39:50.913Z,22.27
2018-01-10T03:42:18.428Z,20.63
2018-01-10T03:44:45.174Z,22.00
2018-01-10T03:47:11.915Z,19.00
2018-01-10T03:49:38.667Z,18.07
2018-01-10T03:52:05.387Z,21.60
2018-01-10T03:54:32.130Z,20.70
2018-01-10T03:56:58.893Z,19.60
2018-01-10T03:59:25.619Z,20.17
2018-01-10T04:01:52.349Z,21.00
2018-01-10T04:04:19.097Z,21.47
2018-01-10T04:06:45.891Z,20.30
2018-01-10T04:09:12.611Z,20.80
2018-01-10T04:11:40.137Z,21.20
2018-01-10T04:14:06.888Z,21.97
2018-01-10T04:16:33.632Z,19.03
2018-01-10T04:19:00.339Z,20.70
2018-01-10T04:21:27.145Z,17.23
2018-01-10T04:23:53.874Z,18.77
2018-01-10T04:26:20.630Z,22.17
2018-01-10T04:28:47.375Z,20.40
2018-01-10T04:31:14.131Z,20.03
2018-01-10T04:33:40.867Z,18.67
2018-01-10T04:36:07.756Z,20.47
2018-01-10T04:38:35.251Z,18.13
2018-01-10T04:41:02.005Z,17.77
2018-01-10T04:43:28.731Z,17.27
2018-01-10T04:45:55.460Z,18.90
2018-01-10T04:48:22.195Z,17.93
2018-01-10T04:50:48.959Z,17.53
2018-01-10T04:53:15.721Z,17.90
2018-01-10T04:55:42.460Z,18.73
2018-01-10T04:58:09.258Z,17.33
2018-01-10T05:00:36.801Z,17.33
2018-01-10T05:03:04.321Z,20.90
2018-01-10T05:05:31.054Z,18.00
2018-01-10T05:07:57.784Z,20.23
2018-01-10T05:10:24.576Z,16.10
2018-01-10T05:12:51.308Z,14.63
2018-01-10T05:15:18.819Z,16.23
2018-01-10T05:17:45.595Z,17.40
2018-01-10T05:20:13.099Z,17.70
2018-01-10T05:22:39.876Z,17.43
2018-01-10T05:25:06.629Z,17.03
2018-01-10T05:27:34.145Z,16.63
2018-01-10T05:30:00.893Z,15.17
2018-01-10T05:32:27.610Z,15.23
2018-01-10T05:34:54.366Z,15.23
2018-01-10T05:37:21.107Z,17.57
2018-01-10T05:39:47.850Z,16.20
2018-01-10T05:42:14.627Z,16.90
2018-01-10T05:44:42.152Z,14.73
2018-01-10T05:47:08.912Z,15.63
2018-01-10T05:49:35.639Z,12.93
2018-01-10T05:52:02.466Z,14.33
2018-01-10T05:54:29.218Z,16.67
2018-01-10T05:56:55.960Z,17.97
2018-01-10T05:59:22.719Z,14.50
2018-01-10T06:01:50.249Z,13.60
2018-01-10T06:04:17.959Z,14.57
2018-01-10T06:06:44.715Z,15.53
2018-01-10T06:09:11.459Z,13.03
2018-01-10T06:11:38.359Z,15.07
2018-01-10T06:14:05.907Z,13.30
2018-01-10T06:16:32.646Z,14.37
2018-01-10T06:19:00.156Z,11.43
2018-01-10T06:21:26.894Z,13.17
2018-01-10T06:23:53.612Z,11.87
2018-01-10T06:26:20.368Z,12.90
2018-01-10T06:28:47.110Z,12.27
2018-01-10T06:31:13.842Z,12.60
2018-01-10T06:33:40.578Z,13.13
2018-01-10T06:36:07.492Z,13.77
2018-01-10T06:38:35.011Z,11.50
2018-01-10T06:41:01.746Z,12.87
2018-01-10T06:43:28.491Z,14.03
2018-01-10T06:45:55.239Z,10.90
2018-01-10T06:48:21.995Z,12.73
2018-01-10T06:50:48.738Z,12.70
2018-01-10T06:53:15.467Z,14.37
2018-01-10T06:55:42.963Z,12.60
2018-01-10T06:58:09.908Z,13.50
2018-01-10T07:00:37.428Z,13.03
2018-01-10T07:03:04.982Z,12.20
2018-01-10T07:05:31.715Z,13.20
2018-01-10T07:07:58.456Z,12.53
2018-01-10T07:10:25.206Z,11.20
2018-01-10T07:12:52.706Z,13.37
2018-01-10T07:15:19.439Z,15.33
2018-01-10T07:17:46.179Z,13.53
2018-01-10T07:20:12.947Z,14.80
2018-01-10T07:22:39.674Z,12.20
2018-01-10T07:25:06.572Z,15.37
2018-01-10T07:27:33.294Z,12.60
2018-01-10T07:30:00.833Z,14.53
2018-01-10T07:32:27.542Z,15.30
2018-01-10T07:34:54.296Z,16.97
2018-01-10T07:37:21.041Z,13.43
2018-01-10T07:39:47.781Z,14.70
2018-01-10T07:42:14.570Z,13.47
2018-01-10T07:44:41.311Z,12.17
2018-01-10T07:47:08.067Z,16.37
2018-01-10T07:49:34.806Z,17.57
2018-01-10T07:52:01.571Z,14.83
2018-01-10T07:54:28.302Z,16.77
2018-01-10T07:56:55.067Z,16.90
2018-01-10T07:59:21.816Z,15.27
2018-01-10T08:01:48.574Z,16.67
2018-01-10T08:04:16.074Z,19.60
2018-01-10T08:06:42.845Z,19.17
2018-01-10T08:09:09.597Z,17.23
2018-01-10T08:11:37.103Z,18.13
2018-01-10T08:14:03.844Z,17.33
2018-01-10T08:16:30.573Z,13.93
2018-01-10T08:18:57.340Z,14.13
2018-01-10T08:21:24.071Z,13.40
2018-01-10T08:23:50.960Z,14.80
2018-01-10T08:26:18.886Z,14.60
2018-01-10T08:28:45.737Z,14.03
2018-01-10T08:31:12.479Z,13.97
2018-01-10T08:33:39.240Z,13.20
2018-01-10T08:36:06.003Z,12.23
2018-01-10T08:38:32.725Z,13.77
2018-01-10T08:41:00.231Z,10.57
2018-01-10T08:43:26.961Z,15.03
2018-01-10T08:45:53.700Z,13.40
2018-01-10T08:48:20.430Z,10.47
2018-01-10T08:50:47.178Z,9.50
2018-01-10T08:53:13.915Z,8.63
2018-01-10T08:55:40.650Z,8.80
2018-01-10T08:58:07.369Z,12.50
2018-01-10T09:00:34.119Z,10.93
2018-01-10T09:03:00.847Z,10.60
2018-01-10T09:05:27.602Z,11.27
2018-01-10T09:07:54.324Z,10.40
2018-01-10T09:10:21.086Z,9.30
2018-01-10T09:12:47.806Z,9.43
2018-01-10T09:15:18.647Z,7.37
2018-01-10T09:17:47.116Z,9.40
2018-01-10T09:20:13.874Z,10.30
2018-01-10T09:22:40.692Z,10.20
2018-01-10T09:25:07.404Z,9.93
2018-01-10T09:27:34.143Z,9.47
2018-01-10T09:30:00.891Z,8.87
2018-01-10T09:32:28.194Z,8.70
2018-01-10T09:34:54.901Z,8.40
2018-01-10T09:37:22.398Z,8.20
2018-01-10T09:39:49.156Z,7.77
2018-01-10T09:42:15.892Z,9.43
2018-01-10T09:44:42.652Z,9.77
2018-01-10T09:47:09.379Z,7.77
2018-01-10T09:49:36.890Z,9.67
2018-01-10T09:52:03.613Z,7.23
2018-01-10T09:54:30.360Z,8.20
2018-01-10T09:56:57.096Z,9.33
2018-01-10T09:59:23.821Z,7.17
2018-01-10T10:01:51.336Z,7.33
2018-01-10T10:04:19.280Z,7.63
2018-01-10T10:06:47.060Z,8.80
2018-01-10T10:09:13.803Z,11.20
2018-01-10T10:11:40.546Z,6.67
2018-01-10T10:14:07.266Z,5.37
2018-01-10T10:16:33.989Z,6.60
2018-01-10T10:19:00.807Z,5.33
2018-01-10T10:21:27.505Z,5.83
2018-01-10T10:23:54.249Z,7.23
2018-01-10T10:26:20.966Z,6.80
2018-01-10T10:28:47.724Z,8.97
2018-01-10T10:31:14.470Z,7.27
2018-01-10T10:33:41.202Z,5.00
2018-01-10T10:36:09.603Z,8.00
2018-01-10T10:38:37.115Z,7.10
2018-01-10T10:41:03.856Z,9.60
2018-01-10T10:43:30.601Z,9.43
2018-01-10T10:45:57.330Z,7.33
2018-01-10T10:48:24.179Z,7.07
2018-01-10T10:50:50.894Z,9.30
2018-01-10T10:53:17.810Z,16.03
2018-01-10T10:55:45.355Z,8.47
2018-01-10T10:58:12.914Z,9.57
2018-01-10T11:00:40.526Z,7.20
2018-01-10T11:03:07.267Z,7.80
2018-01-10T11:05:33.998Z,8.47
2018-01-10T11:08:00.743Z,8.10
2018-01-10T11:10:27.478Z,10.20
2018-01-10T11:12:54.240Z,8.17
2018-01-10T11:15:20.973Z,7.60
2018-01-10T11:17:47.716Z,9.87
2018-01-10T11:20:14.448Z,8.60
2018-01-10T11:22:41.207Z,8.27
2018-01-10T11:25:07.924Z,7.73
2018-01-10T11:27:34.653Z,10.77
2018-01-10T11:30:01.421Z,8.80
2018-01-10T11:32:28.153Z,7.50
2018-01-10T11:34:54.930Z,7.43
2018-01-10T11:37:22.418Z,7.20
2018-01-10T11:39:49.328Z,7.63
2018-01-10T11:42:16.837Z,6.00
2018-01-10T11:44:43.550Z,7.00
2018-01-10T11:47:10.369Z,10.43
2018-01-10T11:49:37.100Z,5.27
2018-01-10T11:52:04.666Z,6.83
2018-01-10T11:54:31.461Z,6.73
2018-01-10T11:56:58.183Z,7.13
2018-01-10T11:59:25.212Z,9.50
2018-01-10T12:01:51.938Z,6.93
2018-01-10T12:04:18.680Z,12.37
2018-01-10T12:06:45.480Z,8.40
2018-01-10T12:09:12.215Z,7.57
2018-01-10T12:11:38.955Z,9.40
2018-01-10T12:14:05.691Z,7.97
2018-01-10T12:16:32.428Z,8.40
2018-01-10T12:18:59.957Z,7.63
2018-01-10T12:21:26.681Z,8.30
2018-01-10T12:23:53.417Z,9.37
2018-01-10T12:26:20.157Z,8.30
2018-01-10T12:28:46.908Z,10.80
2018-01-10T12:31:13.644Z,8.00
2018-01-10T12:33:40.376Z,6.80
2018-01-10T12:36:07.100Z,5.97
2018-01-10T12:38:33.846Z,7.53
2018-01-10T12:41:00.565Z,10.17
2018-01-10T12:43:28.083Z,9.10
2018-01-10T12:45:54.810Z,7.40
2018-01-10T12:48:21.572Z,9.77
2018-01-10T12:50:48.308Z,6.43
2018-01-10T12:53:15.030Z,7.77
2018-01-10T12:55:41.779Z,9.03
2018-01-10T12:58:08.528Z,7.57
2018-01-10T13:00:35.296Z,10.60
2018-01-10T13:03:02.835Z,6.80
2018-01-10T13:05:29.583Z,12.10
2018-01-10T13:07:57.093Z,22.10
2018-01-10T13:10:23.824Z,8.53
2018-01-10T13:12:50.560Z,12.40
2018-01-10T13:15:17.342Z,15.47
2018-01-10T13:17:45.611Z,19.27
2018-01-10T13:20:12.353Z,25.77
2018-01-10T13:22:39.095Z,10.43
2018-01-10T13:25:05.852Z,7.63
2018-01-10T13:27:33.356Z,6.97
2018-01-10T13:30:00.100Z,7.60
2018-01-10T13:32:27.035Z,6.13
2018-01-10T13:34:53.774Z,11.57
2018-01-10T13:37:20.526Z,16.60
2018-01-10T13:39:47.268Z,16.13
2018-01-10T13:42:13.982Z,6.83
2018-01-10T13:44:40.738Z,9.53
2018-01-10T13:47:07.479Z,14.90
2018-01-10T13:49:34.375Z,7.97
2018-01-10T13:52:01.085Z,16.33
2018-01-10T13:54:27.820Z,11.83
2018-01-10T13:56:54.562Z,6.80
2018-01-10T13:59:21.291Z,9.33
2018-01-10T14:01:48.050Z,10.20
2018-01-10T14:04:15.539Z,8.47
2018-01-10T14:06:42.294Z,5.63
2018-01-10T14:09:09.040Z,6.77
2018-01-10T14:11:35.944Z,6.67
2018-01-10T14:14:03.487Z,8.33
2018-01-10T14:16:30.202Z,5.33
2018-01-10T14:18:56.936Z,6.63
2018-01-10T14:21:23.720Z,6.80
2018-01-10T14:23:51.245Z,9.47
2018-01-10T14:26:18.071Z,7.00
2018-01-10T14:28:44.812Z,9.13
2018-01-10T14:31:11.561Z,8.77
2018-01-10T14:33:38.315Z,7.07
2018-01-10T14:36:05.854Z,7.13
2018-01-10T14:38:32.640Z,8.23
2018-01-10T14:40:59.392Z,11.80
2018-01-10T14:43:26.114Z,6.30
2018-01-10T14:45:52.856Z,7.10
2018-01-10T14:48:20.373Z,9.90
2018-01-10T14:50:47.123Z,11.13
2018-01-10T14:53:13.880Z,11.33
2018-01-10T14:55:41.408Z,11.57
2018-01-10T14:58:08.154Z,13.93
2018-01-10T15:00:34.957Z,15.60
2018-01-10T15:03:01.695Z,12.17
2018-01-10T15:05:28.442Z,12.57
2018-01-10T15:07:55.173Z,13.80
2018-01-10T15:10:21.900Z,10.37
2018-01-10T15:12:48.630Z,9.63
2018-01-10T15:15:15.362Z,11.33
2018-01-10T15:17:42.130Z,9.67
2018-01-10T15:20:08.958Z,12.83
2018-01-10T15:22:35.760Z,7.00
2018-01-10T15:25:03.271Z,10.83
2018-01-10T15:27:30.042Z,12.03
2018-01-10T15:29:56.817Z,8.60
2018-01-10T15:32:24.303Z,8.67
2018-01-10T15:34:51.172Z,9.97
2018-01-10T15:37:17.923Z,14.27
2018-01-10T15:39:44.693Z,11.73
2018-01-10T15:42:12.174Z,12.30
2018-01-10T15:44:38.921Z,11.40
2018-01-10T15:47:05.670Z,12.80
2018-01-10T15:49:32.416Z,11.80
2018-01-10T15:51:59.173Z,7.50
2018-01-10T15:54:25.894Z,11.80
2018-01-10T15:56:52.626Z,17.90
2018-01-10T15:59:19.387Z,13.13
2018-01-10T16:01:46.144Z,14.97
2018-01-10T16:04:13.659Z,17.90
2018-01-10T16:06:40.406Z,11.53
2018-01-10T16:09:07.159Z,14.33
2018-01-10T16:11:33.910Z,13.40
2018-01-10T16:14:02.164Z,17.33
2018-01-10T16:16:28.911Z,23.10
2018-01-10T16:18:57.374Z,20.13
2018-01-10T16:21:24.151Z,21.33
2018-01-10T16:23:51.669Z,17.67
2018-01-10T16:26:18.437Z,11.20
2018-01-10T16:28:45.227Z,19.47
2018-01-10T16:31:11.993Z,17.90
2018-01-10T16:33:38.814Z,27.80
2018-01-10T16:36:05.613Z,28.53
2018-01-10T16:38:32.384Z,24.00
2018-01-10T16:40:59.120Z,28.50
2018-01-10T16:43:25.885Z,23.97
2018-01-10T16:45:52.618Z,10.17
2018-01-10T16:48:19.393Z,11.33
2018-01-10T16:50:46.889Z,8.30
2018-01-10T16:53:13.608Z,11.63
2018-01-10T16:55:40.361Z,8.47
2018-01-10T16:58:07.074Z,9.00
2018-01-10T17:00:33.792Z,19.40
2018-01-10T17:03:00.505Z,21.87
2018-01-10T17:05:27.299Z,22.00
2018-01-10T17:07:54.015Z,22.30
2018-01-10T17:10:20.799Z,27.93
2018-01-10T17:12:47.556Z,24.13
2018-01-10T17:15:14.283Z,20.83
2018-01-10T17:17:41.027Z,19.17
2018-01-10T17:20:07.767Z,11.90
2018-01-10T17:22:34.500Z,12.13
2018-01-10T17:25:01.252Z,11.30
2018-01-10T17:27:27.984Z,7.37
2018-01-10T17:29:54.738Z,9.57
2018-01-10T17:32:21.466Z,10.27
2018-01-10T17:34:48.197Z,6.90
2018-01-10T17:37:14.949Z,9.53
2018-01-10T17:39:41.660Z,15.73
2018-01-10T17:42:08.491Z,16.83
2018-01-10T17:44:35.274Z,16.20
2018-01-10T17:47:02.010Z,13.77
2018-01-10T17:49:28.790Z,17.00
2018-01-10T17:51:55.532Z,9.23
2018-01-10T17:54:22.277Z,10.47
2018-01-10T17:56:49.749Z,9.93
2018-01-10T17:59:16.500Z,21.97
2018-01-10T18:01:43.251Z,16.90
2018-01-10T18:04:10.009Z,17.37
2018-01-10T18:06:36.805Z,11.97
2018-01-10T18:09:03.504Z,13.13
2018-01-10T18:11:30.275Z,17.80
2018-01-10T18:13:57.778Z,20.53
2018-01-10T18:16:24.605Z,24.37
2018-01-10T18:18:51.339Z,27.10
2018-01-10T18:21:18.088Z,22.70
2018-01-10T18:23:44.810Z,16.60
2018-01-10T18:26:11.590Z,10.77
2018-01-10T18:28:38.312Z,10.00
2018-01-10T18:31:05.061Z,11.33
2018-01-10T18:33:31.796Z,7.33
2018-01-10T18:35:58.572Z,21.23
2018-01-10T18:38:25.250Z,17.27
2018-01-10T18:40:52.014Z,20.23
2018-01-10T18:43:18.749Z,22.93
2018-01-10T18:45:45.524Z,15.30
2018-01-10T18:48:12.248Z,10.43
2018-01-10T18:50:39.749Z,12.43
2018-01-10T18:53:06.558Z,16.10
2018-01-10T18:55:33.282Z,10.07
2018-01-10T18:58:00.083Z,8.97
2018-01-10T19:00:27.554Z,12.10
2018-01-10T19:02:54.335Z,12.30
2018-01-10T19:05:21.053Z,10.20
2018-01-10T19:07:47.803Z,9.50
2018-01-10T19:10:16.033Z,9.43
2018-01-10T19:12:42.779Z,10.67
2018-01-10T19:15:09.568Z,11.23
2018-01-10T19:17:37.805Z,8.27
2018-01-10T19:20:04.567Z,8.13
2018-01-10T19:22:31.319Z,12.37
2018-01-10T19:24:58.838Z,11.67
2018-01-10T19:27:25.617Z,10.27
2018-01-10T19:29:52.386Z,10.23
2018-01-10T19:32:19.191Z,9.03
2018-01-10T19:34:45.946Z,8.03
2018-01-10T19:37:12.692Z,8.07
2018-01-10T19:39:40.236Z,10.83
2018-01-10T19:42:07.828Z,10.37
2018-01-10T19:44:34.570Z,11.53
2018-01-10T19:47:01.308Z,11.73
2018-01-10T19:49:28.007Z,23.70
2018-01-10T19:51:55.589Z,19.37
2018-01-10T19:54:23.056Z,9.40
2018-01-10T19:56:49.799Z,7.73
2018-01-10T19:59:16.524Z,9.73
2018-01-10T20:01:43.280Z,10.13
2018-01-10T20:04:10.005Z,10.30
2018-01-10T20:06:36.778Z,10.70
2018-01-10T20:09:03.507Z,10.27
2018-01-10T20:11:30.255Z,7.87
2018-01-10T20:13:56.995Z,12.33
2018-01-10T20:16:23.735Z,8.13
2018-01-10T20:18:50.485Z,8.90
2018-01-10T20:21:17.306Z,8.87
2018-01-10T20:23:44.052Z,10.87
2018-01-10T20:26:10.808Z,13.97
2018-01-10T20:28:37.563Z,10.17
2018-01-10T20:31:05.058Z,18.87
2018-01-10T20:33:31.806Z,22.17
2018-01-10T20:35:58.621Z,17.87
2018-01-10T20:38:25.354Z,13.03
2018-01-10T20:40:52.847Z,12.17
2018-01-10T20:43:19.586Z,9.87
2018-01-10T20:45:46.317Z,13.27
2018-01-10T20:48:13.044Z,13.63
2018-01-10T20:50:39.796Z,14.37
2018-01-10T20:53:06.523Z,14.20
2018-01-10T20:55:33.292Z,12.50
2018-01-10T20:58:00.065Z,10.80
2018-01-10T21:00:26.799Z,9.27
2018-01-10T21:02:53.596Z,11.13
2018-01-10T21:05:20.314Z,11.50
2018-01-10T21:07:47.065Z,15.00
2018-01-10T21:10:13.822Z,15.73
2018-01-10T21:12:40.563Z,19.27
2018-01-10T21:15:07.354Z,23.00
2018-01-10T21:17:34.315Z,13.53
2018-01-10T21:20:01.080Z,19.93
2018-01-10T21:22:27.841Z,13.40
2018-01-10T21:24:54.573Z,16.17
2018-01-10T21:27:21.316Z,18.93
2018-01-10T21:29:48.091Z,18.33
2018-01-10T21:34:48.671Z,49.57
2018-01-10T21:37:15.410Z,25.30
2018-01-10T21:39:42.131Z,17.10
2018-01-10T21:42:08.879Z,14.07
2018-01-10T21:44:35.635Z,14.03
2018-01-10T21:47:02.423Z,21.13
2018-01-10T21:51:57.872Z,45.40
2018-01-10T21:54:25.505Z,19.67
2018-01-10T21:56:52.242Z,77.90
2018-01-10T21:59:19.001Z,71.83
2018-01-10T22:01:46.533Z,86.30
2018-01-10T22:04:14.777Z,60.40
2018-01-10T22:06:41.514Z,27.60
2018-01-10T22:09:08.269Z,27.60
2018-01-10T22:11:35.030Z,18.37
2018-01-10T22:14:01.921Z,18.23
2018-01-10T22:16:28.660Z,14.77
2018-01-10T22:18:55.418Z,11.10
2018-01-10T22:21:22.171Z,11.43
2018-01-10T22:23:48.919Z,10.17
2018-01-10T22:26:15.681Z,10.60
2018-01-10T22:28:43.190Z,10.40
2018-01-10T22:31:09.995Z,13.63
2018-01-10T22:33:36.735Z,14.10
2018-01-10T22:36:03.491Z,11.63
2018-01-10T22:38:30.237Z,15.00
2018-01-10T22:40:56.962Z,12.50
2018-01-10T22:43:23.700Z,12.60
2018-01-10T22:45:50.447Z,16.67
2018-01-10T22:48:17.182Z,13.93
2018-01-10T22:50:43.947Z,13.60
2018-01-10T22:53:10.700Z,13.67
2018-01-10T22:55:37.446Z,18.23
2018-01-10T22:58:04.187Z,15.17
2018-01-10T23:00:32.439Z,15.10
2018-01-10T23:02:59.172Z,15.93
2018-01-10T23:05:25.978Z,18.33
2018-01-10T23:07:52.675Z,21.13
2018-01-10T23:10:19.498Z,23.53
2018-01-10T23:12:46.251Z,28.23
2018-01-10T23:15:12.979Z,28.60
2018-01-10T23:17:39.730Z,25.67
2018-01-10T23:20:06.502Z,23.60
2018-01-10T23:22:33.213Z,23.60
2018-01-10T23:24:59.958Z,27.00
2018-01-10T23:27:26.716Z,27.47
2018-01-10T23:29:54.217Z,34.83
2018-01-10T23:32:20.983Z,27.83
2018-01-10T23:34:47.715Z,27.63
2018-01-10T23:37:14.468Z,26.67
2018-01-10T23:39:41.243Z,32.03
2018-01-10T23:42:08.784Z,35.43
2018-01-10T23:44:36.339Z,36.30
2018-01-10T23:47:03.896Z,29.27
2018-01-10T23:49:30.670Z,20.93
2018-01-10T23:51:57.362Z,17.00
2018-01-10T23:54:24.108Z,16.37
2018-01-10T23:56:51.606Z,17.50
2018-01-10T23:59:18.380Z,18.00
